createdAt,value
2022-10-03T00:05:00.304Z,90.68
2022-10-03T00:10:34.037Z,90.88
2022-10-03T00:16:04.453Z,91.01
2022-10-03T00:21:35.236Z,90.96
2022-10-03T00:27:07.747Z,90.91
2022-10-03T00:32:48.863Z,91.04
2022-10-03T00:38:18.578Z,91.22
2022-10-03T00:43:51.373Z,91.19
2022-10-03T00:48:56.132Z,91.10
2022-10-03T00:54:15.648Z,91.01
2022-10-03T00:59:23.337Z,90.88
2022-10-03T01:04:44.039Z,90.80
2022-10-03T01:10:35.256Z,90.83
2022-10-03T01:16:00.553Z,90.79
2022-10-03T01:21:08.535Z,90.65
2022-10-03T01:26:44.556Z,90.56
2022-10-03T01:32:11.741Z,90.45
2022-10-03T01:37:32.309Z,90.32
2022-10-03T01:42:43.964Z,90.34
2022-10-03T01:47:55.671Z,90.37
2022-10-03T01:53:13.595Z,90.30
2022-10-03T01:58:31.388Z,90.15
2022-10-03T02:03:37.984Z,90.06
2022-10-03T02:09:05.348Z,89.91
2022-10-03T02:14:24.657Z,89.76
2022-10-03T02:19:42.459Z,89.52
2022-10-03T02:24:57.405Z,89.31
2022-10-03T02:30:14.493Z,89.05
2022-10-03T02:36:01.817Z,88.92
2022-10-03T02:41:39.445Z,88.85
2022-10-03T02:47:18.804Z,88.81
2022-10-03T02:53:07.678Z,88.74
2022-10-03T02:58:42.911Z,88.71
2022-10-03T03:04:15.388Z,88.66
2022-10-03T03:09:43.715Z,88.55
2022-10-03T03:15:34.055Z,88.37
2022-10-03T03:20:48.069Z,88.19
2022-10-03T03:26:15.222Z,88.01
2022-10-03T03:31:29.954Z,87.87
2022-10-03T03:36:48.993Z,87.69
2022-10-03T03:41:56.898Z,87.45
2022-10-03T03:47:10.641Z,87.30
2022-10-03T03:52:35.167Z,87.15
2022-10-03T03:57:44.059Z,86.96
2022-10-03T04:03:05.273Z,86.75
2022-10-03T04:08:28.612Z,86.70
2022-10-03T04:14:08.171Z,86.81
2022-10-03T04:19:26.125Z,87.02
2022-10-03T04:24:30.711Z,87.00
2022-10-03T04:29:56.511Z,86.65
2022-10-03T04:35:04.470Z,86.27
2022-10-03T04:40:25.863Z,86.09
2022-10-03T04:45:45.930Z,85.90
2022-10-03T04:51:07.540Z,85.46
2022-10-03T04:56:44.691Z,85.80
2022-10-03T05:02:18.470Z,85.71
2022-10-03T05:07:42.573Z,85.37
2022-10-03T05:12:59.542Z,85.80
2022-10-03T05:18:26.979Z,86.73
2022-10-03T05:23:38.076Z,87.26
2022-10-03T05:29:04.194Z,87.63
2022-10-03T05:34:17.106Z,87.90
2022-10-03T05:39:56.581Z,88.16
2022-10-03T05:45:21.637Z,88.22
2022-10-03T05:50:29.259Z,88.09
2022-10-03T05:55:42.980Z,88.02
2022-10-03T06:01:00.650Z,87.90
2022-10-03T06:06:20.895Z,87.74
2022-10-03T06:12:03.237Z,87.65
2022-10-03T06:17:10.859Z,87.42
2022-10-03T06:22:32.688Z,87.50
2022-10-03T06:28:12.398Z,87.19
2022-10-03T06:33:56.117Z,86.21
2022-10-03T06:39:52.495Z,85.84
2022-10-03T06:45:16.365Z,85.65
2022-10-03T06:50:28.308Z,85.49
2022-10-03T06:55:46.854Z,84.30
2022-10-03T07:01:13.690Z,83.90
2022-10-03T07:06:46.237Z,83.81
2022-10-03T07:12:20.145Z,83.41
2022-10-03T07:17:50.705Z,83.12
2022-10-03T07:23:17.490Z,83.38
2022-10-03T07:28:49.780Z,83.05
2022-10-03T07:34:27.199Z,84.41
2022-10-03T07:39:47.615Z,86.55
2022-10-03T07:45:31.340Z,87.58
2022-10-03T07:50:56.889Z,87.44
2022-10-03T07:56:26.415Z,87.50
2022-10-03T08:01:48.190Z,88.09
2022-10-03T08:07:28.826Z,88.05
2022-10-03T08:12:45.957Z,86.23
2022-10-03T08:18:32.346Z,84.93
2022-10-03T08:23:49.337Z,84.45
2022-10-03T08:29:13.442Z,84.48
2022-10-03T08:34:36.846Z,84.76
2022-10-03T08:39:57.943Z,83.30
2022-10-03T08:45:30.842Z,82.77
2022-10-03T08:50:48.096Z,81.78
2022-10-03T08:56:27.690Z,81.44
2022-10-03T09:01:40.998Z,81.00
2022-10-03T09:07:18.077Z,81.06
2022-10-03T09:12:45.772Z,81.89
2022-10-03T09:18:01.984Z,82.58
2022-10-03T09:23:41.613Z,84.01
2022-10-03T09:28:50.481Z,85.25
2022-10-03T09:33:55.446Z,85.89
2022-10-03T09:39:08.169Z,86.22
2022-10-03T09:44:54.446Z,86.48
2022-10-03T09:49:56.229Z,85.91
2022-10-03T09:55:14.309Z,86.22
2022-10-03T10:00:24.074Z,87.32
2022-10-03T10:05:54.579Z,87.96
2022-10-03T10:11:12.465Z,88.08
2022-10-03T10:16:23.356Z,86.93
2022-10-03T10:21:34.813Z,85.39
2022-10-03T10:27:11.061Z,82.77
2022-10-03T10:32:43.617Z,83.59
2022-10-03T10:37:55.137Z,84.24
2022-10-03T10:43:18.030Z,84.19
2022-10-03T10:48:44.754Z,83.36
2022-10-03T10:54:20.561Z,83.70
2022-10-03T10:59:53.649Z,83.77
2022-10-03T11:05:23.808Z,84.16
2022-10-03T11:10:34.616Z,83.65
2022-10-03T11:16:20.749Z,84.01
2022-10-03T11:22:13.952Z,84.11
2022-10-03T11:27:39.987Z,84.08
2022-10-03T11:33:33.014Z,84.36
2022-10-03T11:38:41.337Z,85.83
2022-10-03T11:44:15.560Z,86.83
2022-10-03T11:49:55.258Z,86.93
2022-10-03T11:55:15.951Z,86.71
2022-10-03T12:00:21.051Z,86.76
2022-10-03T12:05:47.462Z,87.37
2022-10-03T12:11:18.905Z,87.70
2022-10-03T12:17:16.732Z,87.02
2022-10-03T12:22:53.009Z,86.80
2022-10-03T12:27:57.856Z,86.19
2022-10-03T12:33:21.573Z,86.26
2022-10-03T12:38:51.412Z,87.47
2022-10-03T12:44:19.643Z,88.35
2022-10-03T12:49:30.347Z,89.16
2022-10-03T12:55:05.735Z,89.58
2022-10-03T13:00:21.033Z,89.81
2022-10-03T13:05:41.597Z,89.61
2022-10-03T13:10:54.698Z,89.07
2022-10-03T13:16:13.547Z,88.55
2022-10-03T13:21:44.900Z,88.66
2022-10-03T13:27:05.508Z,87.95
2022-10-03T13:32:13.333Z,87.20
2022-10-03T13:37:22.650Z,86.81
2022-10-03T13:42:39.418Z,86.29
2022-10-03T13:48:14.890Z,86.06
2022-10-03T13:53:50.326Z,87.01
2022-10-03T13:59:25.578Z,87.48
2022-10-03T14:04:57.121Z,87.49
2022-10-03T14:10:10.527Z,87.25
2022-10-03T14:15:27.920Z,86.04
2022-10-03T14:20:41.438Z,85.18
2022-10-03T14:26:05.645Z,85.43
2022-10-03T14:31:35.025Z,84.63
2022-10-03T14:36:49.821Z,83.33
2022-10-03T14:41:52.203Z,83.04
2022-10-03T14:47:09.083Z,83.83
2022-10-03T14:52:26.981Z,85.36
2022-10-03T14:57:39.686Z,86.84
2022-10-03T15:02:51.004Z,87.79
2022-10-03T15:08:13.693Z,88.43
2022-10-03T15:13:22.938Z,88.79
2022-10-03T15:18:33.645Z,89.10
2022-10-03T15:23:43.897Z,89.46
2022-10-03T15:28:50.732Z,89.73
2022-10-03T15:33:54.374Z,89.96
2022-10-03T15:39:01.103Z,90.26
2022-10-03T15:44:13.536Z,90.52
2022-10-03T15:49:30.464Z,90.49
2022-10-03T15:54:38.795Z,90.27
2022-10-03T15:59:45.446Z,90.21
2022-10-03T16:04:48.940Z,90.23
2022-10-03T16:10:06.937Z,90.05
2022-10-03T16:15:21.327Z,90.00
2022-10-03T16:20:29.813Z,90.20
2022-10-03T16:25:49.310Z,90.38
2022-10-03T16:31:00.049Z,90.53
2022-10-03T16:36:05.462Z,90.62
2022-10-03T16:41:10.428Z,90.78
2022-10-03T16:46:21.277Z,90.87
2022-10-03T16:51:46.917Z,90.96
2022-10-03T16:56:57.024Z,91.04
2022-10-03T17:02:06.601Z,91.28
2022-10-03T17:07:15.636Z,91.53
2022-10-03T17:12:39.043Z,91.61
2022-10-03T17:18:34.909Z,91.60
2022-10-03T17:23:49.384Z,91.56
2022-10-03T17:29:08.415Z,91.59
2022-10-03T17:34:23.973Z,91.43
2022-10-03T17:39:35.137Z,91.37
2022-10-03T17:45:09.407Z,91.40
2022-10-03T17:50:17.041Z,91.50
2022-10-03T17:55:27.405Z,91.56
2022-10-03T18:00:45.264Z,91.51
2022-10-03T18:05:52.677Z,91.41
2022-10-03T18:11:05.178Z,91.35
2022-10-03T18:16:39.127Z,91.30
2022-10-03T18:21:44.492Z,91.31
2022-10-03T18:26:54.560Z,91.40
2022-10-03T18:32:02.114Z,91.44
2022-10-03T18:37:25.703Z,91.41
2022-10-03T18:42:29.874Z,91.43
2022-10-03T18:47:44.080Z,91.42
2022-10-03T18:52:52.789Z,91.43
2022-10-03T18:58:09.778Z,91.44
2022-10-03T19:03:16.237Z,91.37
2022-10-03T19:08:30.126Z,91.18
2022-10-03T19:13:37.193Z,91.09
2022-10-03T19:19:01.009Z,91.22
2022-10-03T19:24:13.271Z,91.52
2022-10-03T19:29:23.201Z,91.69
2022-10-03T19:34:38.171Z,91.51
2022-10-03T19:39:41.130Z,91.25
2022-10-03T19:44:44.331Z,91.25
2022-10-03T19:50:04.281Z,91.51
2022-10-03T19:55:33.634Z,91.53
2022-10-03T20:01:00.372Z,91.58
2022-10-03T20:06:11.494Z,91.64
2022-10-03T20:11:39.899Z,91.61
2022-10-03T20:16:46.644Z,91.50
2022-10-03T20:21:57.115Z,91.44
2022-10-03T20:27:30.453Z,91.40
2022-10-03T20:32:42.194Z,91.28
2022-10-03T20:37:52.129Z,91.17
2022-10-03T20:43:09.673Z,91.09
2022-10-03T20:48:22.536Z,91.00
2022-10-03T20:53:27.502Z,90.86
2022-10-03T20:58:42.282Z,90.82
2022-10-03T21:04:20.035Z,90.83
2022-10-03T21:09:39.347Z,90.92
2022-10-03T21:14:43.666Z,91.06
2022-10-03T21:20:01.301Z,91.14
2022-10-03T21:25:08.554Z,91.14
2022-10-03T21:30:18.842Z,91.07
2022-10-03T21:35:29.200Z,91.01
2022-10-03T21:40:49.122Z,91.03
2022-10-03T21:46:15.528Z,91.01
2022-10-03T21:51:49.348Z,91.03
2022-10-03T21:57:12.875Z,91.07
2022-10-03T22:02:37.479Z,91.11
2022-10-03T22:07:41.985Z,91.12
2022-10-03T22:13:07.317Z,91.16
2022-10-03T22:18:15.468Z,91.23
2022-10-03T22:23:23.505Z,91.35
2022-10-03T22:28:46.746Z,91.43
2022-10-03T22:34:08.908Z,91.51
2022-10-03T22:39:15.528Z,91.56
2022-10-03T22:44:21.632Z,91.58
2022-10-03T22:49:35.824Z,91.61
2022-10-03T22:54:40.787Z,91.64
2022-10-03T22:59:48.534Z,91.67
2022-10-03T23:04:55.841Z,91.72
2022-10-03T23:10:12.948Z,91.75
2022-10-03T23:15:36.730Z,91.77
2022-10-03T23:20:59.733Z,91.82
2022-10-03T23:26:23.261Z,91.89
2022-10-03T23:32:03.720Z,91.91
2022-10-03T23:37:11.221Z,91.91
2022-10-03T23:42:33.233Z,91.92
2022-10-03T23:47:47.078Z,91.85
2022-10-03T23:52:58.086Z,91.88
2022-10-03T23:58:00.450Z,91.89
